createdAt,value
2022-08-03T00:01:27.668Z,27.33
2022-08-03T00:03:54.899Z,25.37
2022-08-03T00:06:21.830Z,25.57
2022-08-03T00:08:49.010Z,25.53
2022-08-03T00:11:16.109Z,24.13
2022-08-03T00:13:43.258Z,23.90
2022-08-03T00:16:10.880Z,23.53
2022-08-03T00:18:38.020Z,21.47
2022-08-03T00:21:05.646Z,24.97
2022-08-03T00:23:51.804Z,23.20
2022-08-03T00:26:20.725Z,21.70
2022-08-03T00:28:48.445Z,21.40
2022-08-03T00:31:15.608Z,23.53
2022-08-03T00:33:58.761Z,17.63
2022-08-03T00:36:27.819Z,26.43
2022-08-03T00:38:55.413Z,22.10
2022-08-03T00:41:22.407Z,19.33
2022-08-03T00:43:50.285Z,24.23
2022-08-03T00:46:21.337Z,24.53
2022-08-03T00:48:50.426Z,24.63
2022-08-03T00:51:19.065Z,26.60
2022-08-03T00:53:46.142Z,24.90
2022-08-03T00:56:15.220Z,21.30
2022-08-03T00:58:45.172Z,21.80
2022-08-03T01:01:12.858Z,22.33
2022-08-03T01:03:40.474Z,23.50
2022-08-03T01:06:30.494Z,21.57
2022-08-03T01:09:12.534Z,24.57
2022-08-03T01:12:35.745Z,22.23
2022-08-03T01:15:44.882Z,22.27
2022-08-03T01:18:24.022Z,23.10
2022-08-03T01:20:55.851Z,23.73
2022-08-03T01:23:55.244Z,20.40
2022-08-03T01:26:54.495Z,21.43
2022-08-03T01:29:50.541Z,22.73
2022-08-03T01:32:58.936Z,20.37
2022-08-03T01:35:16.384Z,26.30
2022-08-03T01:37:52.969Z,21.70
2022-08-03T01:40:22.139Z,20.73
2022-08-03T01:42:51.642Z,22.33
2022-08-03T01:45:20.688Z,19.40
2022-08-03T01:47:49.801Z,20.50
2022-08-03T01:50:21.860Z,19.80
2022-08-03T01:52:50.124Z,22.70
2022-08-03T01:55:19.406Z,20.07
2022-08-03T01:58:05.937Z,20.37
2022-08-03T02:00:36.586Z,21.23
2022-08-03T02:03:06.824Z,21.03
2022-08-03T02:05:34.626Z,22.17
2022-08-03T02:08:04.840Z,19.13
2022-08-03T02:10:34.742Z,18.47
2022-08-03T02:13:05.662Z,19.17
2022-08-03T02:15:33.795Z,19.07
2022-08-03T02:18:02.454Z,23.33
2022-08-03T02:20:33.092Z,23.17
2022-08-03T02:23:00.203Z,20.20
2022-08-03T02:25:27.914Z,21.30
2022-08-03T02:28:12.229Z,19.27
2022-08-03T02:30:42.724Z,23.80
2022-08-03T02:33:17.228Z,21.47
2022-08-03T02:35:45.225Z,18.30
2022-08-03T02:38:13.390Z,18.67
2022-08-03T02:40:43.299Z,17.57
2022-08-03T02:43:14.935Z,19.57
2022-08-03T02:45:45.871Z,17.97
2022-08-03T02:48:17.321Z,18.27
2022-08-03T02:50:45.981Z,22.17
2022-08-03T02:53:15.822Z,18.90
2022-08-03T02:55:45.808Z,21.50
2022-08-03T02:58:14.555Z,19.33
2022-08-03T03:00:44.024Z,18.53
2022-08-03T03:03:11.869Z,19.93
2022-08-03T03:05:54.490Z,17.33
2022-08-03T03:08:27.449Z,21.27
2022-08-03T03:10:59.677Z,19.10
2022-08-03T03:13:30.175Z,19.77
2022-08-03T03:16:01.663Z,18.03
2022-08-03T03:18:30.969Z,19.23
2022-08-03T03:21:00.755Z,24.03
2022-08-03T03:23:29.098Z,16.37
2022-08-03T03:25:58.442Z,17.67
2022-08-03T03:28:25.903Z,18.20
2022-08-03T03:30:53.520Z,15.97
2022-08-03T03:33:22.192Z,16.70
2022-08-03T03:35:49.768Z,15.73
2022-08-03T03:38:16.764Z,17.47
2022-08-03T03:40:43.908Z,19.93
2022-08-03T03:43:12.300Z,15.00
2022-08-03T03:45:43.001Z,17.63
2022-08-03T03:48:10.539Z,19.30
2022-08-03T03:50:40.946Z,18.90
2022-08-03T03:53:12.489Z,18.83
2022-08-03T03:55:57.826Z,17.10
2022-08-03T03:58:27.154Z,22.10
2022-08-03T04:00:54.340Z,17.57
2022-08-03T04:03:21.348Z,17.67
2022-08-03T04:06:07.357Z,16.00
2022-08-03T04:08:53.453Z,15.27
2022-08-03T04:11:30.249Z,15.23
2022-08-03T04:14:06.533Z,19.27
2022-08-03T04:16:41.876Z,21.83
2022-08-03T04:19:38.565Z,19.50
2022-08-03T04:22:14.252Z,19.27
2022-08-03T04:24:47.534Z,21.03
2022-08-03T04:27:17.466Z,18.03
2022-08-03T04:29:48.669Z,19.60
2022-08-03T04:32:17.022Z,24.57
2022-08-03T04:34:44.451Z,23.23
2022-08-03T04:37:18.843Z,22.63
2022-08-03T04:39:49.611Z,22.77
2022-08-03T04:42:21.065Z,24.67
2022-08-03T04:44:48.850Z,24.03
2022-08-03T04:47:16.448Z,18.57
2022-08-03T04:49:44.327Z,22.33
2022-08-03T04:52:11.775Z,19.90
2022-08-03T04:54:42.972Z,19.23
2022-08-03T04:57:22.292Z,19.23
2022-08-03T04:59:58.275Z,18.17
2022-08-03T05:02:29.217Z,20.97
2022-08-03T05:04:56.791Z,20.37
2022-08-03T05:07:25.023Z,20.93
2022-08-03T05:09:57.573Z,27.00
2022-08-03T05:12:32.683Z,24.77
2022-08-03T05:15:00.814Z,22.67
2022-08-03T05:17:28.568Z,25.37
2022-08-03T05:19:56.105Z,26.10
2022-08-03T05:22:23.707Z,24.53
2022-08-03T05:24:50.737Z,24.93
2022-08-03T05:27:19.423Z,23.37
2022-08-03T05:29:50.539Z,27.90
2022-08-03T05:32:18.471Z,27.43
2022-08-03T05:34:45.625Z,26.57
2022-08-03T05:37:12.756Z,26.57
2022-08-03T05:39:39.759Z,25.77
2022-08-03T05:42:07.239Z,25.93
2022-08-03T05:44:34.486Z,24.03
2022-08-03T05:47:01.386Z,25.03
2022-08-03T05:49:28.360Z,23.67
2022-08-03T05:51:59.980Z,23.00
2022-08-03T05:54:57.235Z,21.50
2022-08-03T05:57:24.875Z,26.77
2022-08-03T05:59:55.742Z,24.57
2022-08-03T06:02:27.598Z,22.73
2022-08-03T06:04:54.944Z,24.80
2022-08-03T06:07:21.885Z,21.93
2022-08-03T06:10:37.354Z,25.60
2022-08-03T06:12:36.382Z,24.50
2022-08-03T06:15:07.844Z,24.03
2022-08-03T06:17:48.731Z,23.50
2022-08-03T06:20:21.239Z,26.77
2022-08-03T06:23:00.519Z,24.20
2022-08-03T06:25:28.880Z,23.17
2022-08-03T06:27:55.923Z,26.47
2022-08-03T06:30:22.888Z,25.27
2022-08-03T06:32:51.953Z,24.87
2022-08-03T06:35:20.096Z,19.53
2022-08-03T06:37:49.845Z,26.70
2022-08-03T06:40:24.355Z,22.40
2022-08-03T06:42:51.426Z,25.37
2022-08-03T06:45:18.652Z,20.38
2022-08-03T06:47:45.684Z,21.03
2022-08-03T06:50:17.535Z,20.20
2022-08-03T06:52:46.856Z,20.63
2022-08-03T06:55:13.757Z,23.30
2022-08-03T06:57:40.669Z,29.60
2022-08-03T07:00:12.522Z,22.13
2022-08-03T07:02:40.183Z,20.73
2022-08-03T07:05:08.528Z,20.27
2022-08-03T07:07:36.095Z,24.13
2022-08-03T07:10:05.850Z,23.33
2022-08-03T07:12:33.833Z,23.73
2022-08-03T07:15:03.352Z,22.63
2022-08-03T07:17:32.879Z,19.92
2022-08-03T07:20:00.788Z,24.27
2022-08-03T07:22:28.511Z,24.10
2022-08-03T07:24:55.656Z,24.52
2022-08-03T07:27:22.756Z,24.95
2022-08-03T07:29:49.896Z,29.10
2022-08-03T07:32:17.073Z,24.35
2022-08-03T07:34:44.258Z,28.42
2022-08-03T07:37:11.522Z,20.75
2022-08-03T07:39:38.470Z,23.92
2022-08-03T07:42:06.021Z,19.63
2022-08-03T07:44:33.190Z,23.15
2022-08-03T07:47:00.122Z,26.95
2022-08-03T07:49:30.802Z,19.75
2022-08-03T07:52:17.461Z,17.13
2022-08-03T07:54:44.885Z,21.05
2022-08-03T07:57:12.075Z,15.38
2022-08-03T07:59:56.400Z,16.83
2022-08-03T08:02:24.640Z,16.80
2022-08-03T08:04:51.634Z,15.98
2022-08-03T08:07:19.034Z,14.95
2022-08-03T08:09:47.950Z,16.83
2022-08-03T08:12:15.567Z,18.77
2022-08-03T08:14:45.874Z,19.67
2022-08-03T08:17:13.928Z,16.35
2022-08-03T08:19:51.221Z,20.10
2022-08-03T08:22:20.367Z,14.02
2022-08-03T08:24:56.748Z,23.13
2022-08-03T08:27:24.143Z,22.83
2022-08-03T08:29:54.552Z,15.20
2022-08-03T08:32:23.682Z,18.52
2022-08-03T08:34:50.999Z,19.90
2022-08-03T08:37:18.040Z,18.48
2022-08-03T08:39:45.509Z,21.48
2022-08-03T08:42:12.693Z,21.67
2022-08-03T08:44:39.695Z,18.85
2022-08-03T08:47:09.276Z,19.60
2022-08-03T08:49:38.703Z,16.63
2022-08-03T08:52:29.545Z,14.50
2022-08-03T08:55:05.513Z,19.45
2022-08-03T08:57:45.413Z,16.35
2022-08-03T09:00:14.766Z,14.68
2022-08-03T09:02:45.723Z,14.07
2022-08-03T09:05:14.795Z,16.35
2022-08-03T09:07:43.431Z,16.25
2022-08-03T09:10:15.743Z,14.80
2022-08-03T09:12:44.974Z,13.75
2022-08-03T09:15:31.387Z,12.52
2022-08-03T09:18:01.122Z,15.23
2022-08-03T09:20:30.549Z,11.70
2022-08-03T09:23:59.685Z,13.00
2022-08-03T09:25:59.984Z,12.68
2022-08-03T09:29:01.237Z,12.57
2022-08-03T09:31:32.012Z,11.95
2022-08-03T09:34:04.936Z,11.88
2022-08-03T09:36:40.996Z,8.75
2022-08-03T09:39:12.242Z,12.55
2022-08-03T09:41:41.230Z,18.75
2022-08-03T09:44:08.721Z,16.02
2022-08-03T09:46:56.385Z,10.10
2022-08-03T09:49:24.540Z,10.52
2022-08-03T09:52:37.891Z,16.65
2022-08-03T09:54:39.400Z,12.95
2022-08-03T09:57:06.369Z,9.80
2022-08-03T09:59:34.354Z,16.23
2022-08-03T10:02:01.956Z,11.32
2022-08-03T10:04:29.103Z,16.73
2022-08-03T10:07:23.577Z,11.10
2022-08-03T10:10:28.863Z,11.43
2022-08-03T10:12:51.677Z,11.85
2022-08-03T10:16:22.081Z,16.85
2022-08-03T10:18:06.020Z,11.13
2022-08-03T10:20:52.425Z,10.98
2022-08-03T10:23:21.553Z,22.98
2022-08-03T10:25:52.829Z,10.55
2022-08-03T10:28:22.170Z,9.25
2022-08-03T10:30:51.383Z,13.15
2022-08-03T10:33:50.927Z,9.95
2022-08-03T10:36:17.019Z,10.38
2022-08-03T10:38:47.790Z,12.85
2022-08-03T10:41:17.558Z,13.40
2022-08-03T10:43:52.726Z,13.45
2022-08-03T10:46:20.966Z,10.10
2022-08-03T10:48:50.755Z,18.02
2022-08-03T10:51:19.170Z,9.20
2022-08-03T10:53:54.235Z,13.35
2022-08-03T10:56:54.331Z,6.72
2022-08-03T10:59:46.235Z,8.63
2022-08-03T11:02:14.826Z,6.70
2022-08-03T11:04:42.807Z,7.35
2022-08-03T11:07:23.746Z,8.23
2022-08-03T11:09:56.136Z,11.13
2022-08-03T11:12:30.713Z,7.38
2022-08-03T11:15:02.343Z,7.50
2022-08-03T11:17:29.570Z,9.13
2022-08-03T11:19:58.325Z,11.68
2022-08-03T11:22:46.142Z,8.20
2022-08-03T11:25:53.329Z,15.38
2022-08-03T11:28:28.428Z,8.43
2022-08-03T11:30:55.503Z,8.57
2022-08-03T11:33:32.206Z,9.35
2022-08-03T11:36:00.901Z,5.80
2022-08-03T11:38:28.093Z,6.95
2022-08-03T11:40:55.153Z,10.07
2022-08-03T11:43:31.783Z,7.60
2022-08-03T11:46:03.780Z,10.60
2022-08-03T11:48:45.660Z,8.68
2022-08-03T11:51:30.348Z,12.43
2022-08-03T11:53:59.875Z,8.45
2022-08-03T11:56:28.286Z,8.18
2022-08-03T11:59:20.354Z,10.30
2022-08-03T12:01:45.986Z,7.60
2022-08-03T12:04:13.108Z,6.88
2022-08-03T12:06:55.466Z,10.98
2022-08-03T12:09:22.855Z,8.50
2022-08-03T12:12:00.230Z,6.53
2022-08-03T12:14:50.625Z,8.98
2022-08-03T12:17:19.542Z,7.72
2022-08-03T12:19:47.137Z,6.65
2022-08-03T12:22:15.813Z,8.32
2022-08-03T12:24:43.953Z,6.65
2022-08-03T12:27:11.811Z,8.05
2022-08-03T12:29:38.926Z,10.75
2022-08-03T12:32:05.887Z,8.02
2022-08-03T12:34:47.622Z,7.60
2022-08-03T12:37:20.295Z,6.72
2022-08-03T12:40:02.744Z,8.50
2022-08-03T12:42:36.116Z,9.52
2022-08-03T12:45:23.688Z,6.75
2022-08-03T12:48:02.078Z,7.45
2022-08-03T12:50:34.737Z,7.55
2022-08-03T12:53:04.658Z,4.72
2022-08-03T12:55:40.166Z,7.32
2022-08-03T12:58:33.672Z,8.07
2022-08-03T13:01:04.816Z,8.40
2022-08-03T13:03:50.525Z,6.22
2022-08-03T13:06:26.721Z,7.43
2022-08-03T13:09:05.752Z,8.45
2022-08-03T13:11:55.611Z,7.18
2022-08-03T13:14:20.664Z,6.05
2022-08-03T13:16:49.199Z,5.20
2022-08-03T13:19:16.433Z,5.55
2022-08-03T13:22:01.817Z,6.85
2022-08-03T13:24:32.393Z,8.45
2022-08-03T13:27:00.493Z,8.02
2022-08-03T13:29:27.434Z,9.95
2022-08-03T13:31:54.639Z,9.63
2022-08-03T13:34:23.851Z,7.03
2022-08-03T13:37:09.609Z,6.88
2022-08-03T13:39:57.312Z,9.10
2022-08-03T13:42:24.604Z,6.88
2022-08-03T13:44:51.908Z,8.35
2022-08-03T13:47:20.148Z,10.18
2022-08-03T13:49:59.744Z,8.73
2022-08-03T13:52:34.520Z,8.32
2022-08-03T13:55:06.412Z,8.77
2022-08-03T13:58:06.347Z,8.50
2022-08-03T14:00:28.407Z,6.13
2022-08-03T14:03:03.907Z,5.85
2022-08-03T14:05:32.907Z,6.35
2022-08-03T14:08:05.733Z,7.25
2022-08-03T14:10:38.883Z,6.60
2022-08-03T14:13:06.624Z,8.82
2022-08-03T14:15:38.226Z,7.72
2022-08-03T14:18:15.818Z,8.05
2022-08-03T14:21:01.960Z,8.02
2022-08-03T14:23:32.777Z,11.32
2022-08-03T14:26:00.132Z,7.30
2022-08-03T14:28:27.103Z,6.65
2022-08-03T14:30:55.947Z,11.40
2022-08-03T14:33:24.106Z,9.68
2022-08-03T14:35:52.020Z,7.20
2022-08-03T14:38:19.258Z,7.68
2022-08-03T14:40:47.166Z,8.23
2022-08-03T14:43:14.565Z,7.55
2022-08-03T14:45:41.573Z,9.23
2022-08-03T14:50:29.395Z,7.25
2022-08-03T14:50:56.756Z,6.68
2022-08-03T14:53:24.310Z,9.13
2022-08-03T14:55:52.859Z,6.15
2022-08-03T14:58:22.109Z,7.97
2022-08-03T15:00:51.286Z,6.82
2022-08-03T15:03:25.739Z,8.75
2022-08-03T15:05:54.902Z,12.65
2022-08-03T15:08:23.073Z,11.10
2022-08-03T15:10:50.799Z,10.88
2022-08-03T15:13:19.507Z,6.95
2022-08-03T15:15:47.613Z,6.82
2022-08-03T15:18:15.186Z,6.75
2022-08-03T15:20:45.555Z,6.78
2022-08-03T15:23:15.360Z,6.97
2022-08-03T15:26:28.462Z,11.38
2022-08-03T15:28:31.142Z,7.75
2022-08-03T15:30:58.437Z,8.95
2022-08-03T15:33:25.341Z,11.02
2022-08-03T15:35:53.364Z,7.25
2022-08-03T15:38:25.925Z,9.02
2022-08-03T15:40:58.924Z,7.55
2022-08-03T15:43:25.998Z,9.48
2022-08-03T15:46:19.463Z,10.82
2022-08-03T15:48:43.185Z,12.13
2022-08-03T15:51:11.182Z,7.47
2022-08-03T15:53:38.501Z,12.55
2022-08-03T15:56:11.404Z,8.57
2022-08-03T15:59:03.802Z,10.32
2022-08-03T16:01:28.511Z,9.05
2022-08-03T16:03:55.497Z,10.77
2022-08-03T16:06:29.872Z,9.32
2022-08-03T16:09:23.728Z,9.52
2022-08-03T16:11:54.707Z,13.60
2022-08-03T16:14:34.485Z,6.95
2022-08-03T16:17:05.611Z,11.43
2022-08-03T16:19:32.832Z,10.88
2022-08-03T16:22:00.855Z,8.82
2022-08-03T16:24:28.347Z,10.10
2022-08-03T16:26:56.808Z,9.15
2022-08-03T16:29:24.146Z,8.52
2022-08-03T16:31:52.307Z,8.90
2022-08-03T16:34:20.033Z,11.95
2022-08-03T16:36:47.041Z,12.13
2022-08-03T16:39:14.035Z,12.75
2022-08-03T16:41:53.494Z,9.13
2022-08-03T16:44:29.769Z,9.07
2022-08-03T16:46:57.244Z,7.95
2022-08-03T16:49:55.582Z,9.10
2022-08-03T16:52:13.064Z,9.10
2022-08-03T16:54:40.729Z,8.65
2022-08-03T16:57:08.509Z,12.95
2022-08-03T16:59:36.847Z,6.50
2022-08-03T17:02:09.985Z,7.43
2022-08-03T17:04:40.009Z,7.18
2022-08-03T17:07:08.700Z,9.68
2022-08-03T17:09:38.420Z,7.65
2022-08-03T17:12:07.511Z,10.23
2022-08-03T17:14:38.461Z,8.80
2022-08-03T17:17:16.444Z,7.57
2022-08-03T17:19:47.407Z,11.52
2022-08-03T17:22:27.908Z,8.02
2022-08-03T17:24:58.216Z,7.00
2022-08-03T17:28:50.875Z,8.88
2022-08-03T17:30:18.968Z,13.02
2022-08-03T17:32:56.900Z,9.25
2022-08-03T17:35:36.629Z,8.35
2022-08-03T17:38:10.399Z,10.68
2022-08-03T17:40:40.078Z,6.10
2022-08-03T17:43:17.075Z,10.55
2022-08-03T17:46:07.145Z,7.40
2022-08-03T17:48:34.643Z,10.13
2022-08-03T17:51:30.764Z,6.53
2022-08-03T17:54:18.317Z,12.45
2022-08-03T17:56:58.145Z,11.63
2022-08-03T18:00:29.470Z,10.85
2022-08-03T18:03:28.147Z,11.15
2022-08-03T18:06:11.437Z,15.57
2022-08-03T18:08:50.837Z,15.20
2022-08-03T18:11:21.803Z,11.13
2022-08-03T18:14:16.269Z,11.48
2022-08-03T18:16:52.304Z,9.48
2022-08-03T18:19:20.976Z,14.57
2022-08-03T18:22:09.996Z,8.57
2022-08-03T18:24:38.082Z,11.25
2022-08-03T18:27:07.983Z,12.85
2022-08-03T18:29:37.100Z,9.80
2022-08-03T18:32:12.999Z,9.05
2022-08-03T18:34:53.074Z,14.00
2022-08-03T18:37:25.880Z,9.40
2022-08-03T18:39:57.921Z,12.88
2022-08-03T18:42:26.693Z,10.75
2022-08-03T18:44:55.815Z,9.60
2022-08-03T18:47:56.086Z,14.03
2022-08-03T18:50:46.442Z,13.23
2022-08-03T18:54:03.049Z,12.87
2022-08-03T18:56:34.213Z,20.60
2022-08-03T18:59:13.555Z,19.63
2022-08-03T19:02:00.250Z,21.73
2022-08-03T19:04:36.661Z,16.17
2022-08-03T19:07:08.015Z,15.87
2022-08-03T19:09:47.298Z,21.30
2022-08-03T19:12:31.012Z,21.93
2022-08-03T19:15:10.540Z,17.60
2022-08-03T19:17:50.212Z,10.77
2022-08-03T19:20:25.898Z,21.37
2022-08-03T19:22:54.710Z,15.93
2022-08-03T19:28:09.613Z,15.63
2022-08-03T19:30:39.877Z,75.97
2022-08-03T19:33:12.641Z,37.17
2022-08-03T19:35:49.722Z,24.63
2022-08-03T19:38:28.311Z,33.97
2022-08-03T19:41:00.859Z,30.23
2022-08-03T19:43:52.604Z,35.97
2022-08-03T19:46:27.714Z,27.47
2022-08-03T19:49:10.676Z,35.97
2022-08-03T19:51:58.598Z,44.33
2022-08-03T19:54:39.671Z,36.93
2022-08-03T19:57:24.105Z,35.67
2022-08-03T19:59:52.842Z,43.57
2022-08-03T20:02:26.563Z,33.27
2022-08-03T20:07:48.099Z,32.83
2022-08-03T20:10:17.633Z,28.30
2022-08-03T20:12:45.741Z,25.20
2022-08-03T20:15:13.145Z,27.47
2022-08-03T20:17:56.748Z,24.43
2022-08-03T20:20:34.726Z,21.47
2022-08-03T20:23:07.418Z,19.10
2022-08-03T20:25:57.038Z,16.57
2022-08-03T20:28:49.628Z,22.47
2022-08-03T20:31:32.124Z,26.13
2022-08-03T20:34:03.590Z,22.37
2022-08-03T20:36:30.501Z,19.47
2022-08-03T20:38:57.746Z,19.43
2022-08-03T20:41:25.609Z,24.80
2022-08-03T20:43:52.899Z,21.70
2022-08-03T20:46:32.035Z,20.03
2022-08-03T20:49:06.186Z,19.27
2022-08-03T20:51:49.584Z,22.30
2022-08-03T20:54:30.627Z,21.30
2022-08-03T20:57:00.582Z,23.70
2022-08-03T20:59:47.345Z,18.23
2022-08-03T21:02:29.687Z,22.37
2022-08-03T21:05:03.726Z,17.90
2022-08-03T21:08:05.715Z,20.30
2022-08-03T21:10:31.610Z,21.07
2022-08-03T21:13:08.247Z,34.53
2022-08-03T21:13:10.281Z,14.07
2022-08-03T21:13:19.104Z,20.10
2022-08-03T21:16:06.884Z,21.00
2022-08-03T21:19:02.634Z,26.33
2022-08-03T21:21:32.439Z,23.80
2022-08-03T21:24:03.479Z,28.73
2022-08-03T21:26:33.677Z,24.00
2022-08-03T21:29:02.426Z,26.77
2022-08-03T21:31:29.541Z,21.50
2022-08-03T21:34:05.311Z,22.80
2022-08-03T21:36:35.317Z,25.60
2022-08-03T21:39:06.292Z,21.63
2022-08-03T21:41:33.387Z,22.37
2022-08-03T21:44:01.723Z,21.60
2022-08-03T21:46:35.056Z,21.80
2022-08-03T21:50:05.893Z,20.70
2022-08-03T21:51:55.706Z,22.33
2022-08-03T21:54:27.070Z,21.57
2022-08-03T21:56:57.215Z,20.00
2022-08-03T21:59:26.056Z,24.97
2022-08-03T22:01:55.442Z,20.13
2022-08-03T22:04:53.191Z,19.77
2022-08-03T22:07:13.673Z,21.57
2022-08-03T22:09:51.331Z,24.03
2022-08-03T22:12:30.490Z,21.67
2022-08-03T22:15:01.811Z,20.43
2022-08-03T22:17:55.786Z,19.97
2022-08-03T22:20:22.665Z,25.07
2022-08-03T22:22:55.853Z,20.73
2022-08-03T22:25:35.909Z,20.97
2022-08-03T22:28:07.814Z,24.07
2022-08-03T22:30:35.929Z,22.87
2022-08-03T22:33:05.633Z,21.53
2022-08-03T22:35:44.116Z,22.20
2022-08-03T22:38:15.801Z,22.37
2022-08-03T22:40:43.690Z,21.90
2022-08-03T22:43:10.782Z,25.13
2022-08-03T22:46:07.737Z,20.97
2022-08-03T22:48:27.690Z,20.60
2022-08-03T22:50:56.123Z,21.20
2022-08-03T22:53:23.101Z,21.77
2022-08-03T22:55:51.616Z,21.77
2022-08-03T22:58:20.824Z,20.20
2022-08-03T23:00:53.776Z,17.23
2022-08-03T23:03:25.566Z,19.30
2022-08-03T23:06:14.245Z,18.07
2022-08-03T23:08:45.442Z,20.83
2022-08-03T23:11:15.605Z,17.67
2022-08-03T23:13:43.608Z,20.23
2022-08-03T23:16:10.813Z,19.33
2022-08-03T23:18:41.498Z,17.27
2022-08-03T23:21:11.248Z,18.90
2022-08-03T23:23:44.514Z,19.40
2022-08-03T23:26:13.481Z,19.53
2022-08-03T23:28:45.056Z,20.47
2022-08-03T23:31:14.597Z,19.93
2022-08-03T23:33:44.995Z,20.93
2022-08-03T23:36:30.834Z,17.37
2022-08-03T23:39:02.302Z,18.93
2022-08-03T23:41:30.775Z,19.50
2022-08-03T23:44:00.791Z,16.50
2022-08-03T23:46:30.419Z,17.87
2022-08-03T23:48:59.759Z,20.63
2022-08-03T23:51:42.039Z,20.07
2022-08-03T23:54:30.698Z,19.30
2022-08-03T23:57:03.679Z,16.80
2022-08-03T23:59:49.726Z,19.27
